Old Station, CA

10:59 PM PDT on August 27, 2014 (GMT -0700)
Mount Shasta | Change Station
CLOSE
Current Station
Airport
Location: Mount Shasta,
Elevation: 3533 ft
Nearby Weather Stations

Elev 3533 ft 41.32 °N, 122.32 °W | Updated 3 minutes ago

Haze
Haze
65 °F
Feels Like 65 °F
N
0
Wind Variable Wind from North

Today
High -- | Low -- °F
--% Chance of Precip.
Yesterday
High -- | Low -- °F
Precip. -- in
6:28 AM 7:45 PM
Waxing Crescent, 6% visible
Pressure 30.10 in
Visibility 4.0 miles
Clouds Mostly Cloudy 6000 ft
Dew Point 44 °F
Humidity 47%
Rainfall 0.00 in
Snow Depth Not available.
UV 0 out of 12
Pollen 8.50 out of 12
Air Quality Not available.
Flu Activity Not available.
METAR KMHS 280556Z AUTO 00000KT 4SM HZ BKN060 18/07 A3014 RMK AO2 SLP191 T01830067 10311 20178 51013

More Conditions Fewer Conditions

Pressure 30.10 in
Visibility 4.0 miles
Clouds Mostly Cloudy 6000 ft
Dew Point 44 °F
Humidity 47%
Rainfall 0.00 in
Snow Depth Not available.
UV 0 out of 12
Pollen 8.50 out of 12
Air Quality Not available.
Flu Activity Not available.
METAR KMHS 280556Z AUTO 00000KT 4SM HZ BKN060 18/07 A3014 RMK AO2 SLP191 T01830067 10311 20178 51013

More Conditions Fewer Conditions

10-Day Weather Forecast

Almanac

Astronomy

Aug. 27, 2014 Rise Set
Actual Time 6:28 AM PDT 7:45 PM PDT
Civil Twilight 5:59 AM PDT 8:14 PM PDT
Nautical Twilight 5:25 AM PDT 8:47 PM PDT
Astronomical Twilight 4:49 AM PDT 9:23 PM PDT
Moon 8:30 AM PDT (8/27) 8:39 PM PDT (8/27)
Length of Visible Light 14h 14m
Length of Day
13h 17m
Tomorrow will be 2m 33s shorter.
Waxing Crescent, 6% of the Moon is Illuminated
Aug 28
Waxing Crescent
Sep 2
First Quarter
Sep 8
Full
Sep 15
Last Quarter
Sep 24
New

Yesterday's Extremes

State Highs State Lows

Community

WunderPhotos

Upload Photos

1,747,909 photos uploaded!

Nearby

Snow Depth

Station Depth Elevation
Adin Mountain 0 in 6200 ft
Cedar Pass 0 in 7100 ft
CSS Lab 2 in 6900 ft
Rubicon #2 0 in 7500 ft
Fallen Leaf 0 in 6300 ft

Earthquake Activity

City Distance Mag. Time & Date
The Geysers, California 146 miles 2.6 7:42 AM PDT
2014-08-27
Lakeview, Oregon 127 miles 3.1 10:04 AM PDT
2014-08-26
Hayfork, California 95 miles 2.7 2:57 PM PDT
2014-08-25
The Geysers, California 146 miles 3.1 10:16 AM PDT
2014-08-25
Minimum magnitude displayed is 2.5.

Coastal Water Temperatures

Place Temperature
No Stations Reporting

Nearby Weather Stations